Time;durP1;ratioP1;P1;durP2;ratioP2;P2;SDS_P1;SDS_P2;PMS_P1;PMS_P2;Temp;Humidity;BMP_temperature;BMP_pressure;BME280_temperature;BME280_humidity;BME280_pressure;Samples;Min_cycle;Max_cycle;Signal;HPM_P1;HPM_P2
2022/04/28 00:00:21;;;;;;;7.10;3.70;;;18.10;58.40;;;;;;5010697;28;20239;-58
2022/04/28 00:02:54;;;;;;;4.03;3.03;;;18.10;58.30;;;;;;5010303;28;20197;-59
2022/04/28 00:05:25;;;;;;;4.95;3.35;;;18.20;58.30;;;;;;5009860;28;20282;-59
2022/04/28 00:07:56;;;;;;;4.72;3.47;;;18.20;58.20;;;;;;5007603;28;20216;-57
2022/04/28 00:10:27;;;;;;;5.07;3.53;;;18.20;58.20;;;;;;5009713;28;20197;-57
2022/04/28 00:13:00;;;;;;;5.15;3.40;;;18.20;58.20;;;;;;5010271;28;20247;-59
2022/04/28 00:15:31;;;;;;;7.10;3.78;;;18.20;58.20;;;;;;5009061;28;20922;-57
2022/04/28 00:18:04;;;;;;;5.28;3.35;;;18.20;58.30;;;;;;5010187;28;20251;-59
2022/04/28 00:20:34;;;;;;;5.38;3.33;;;18.30;58.30;;;;;;5009087;28;20204;-57
2022/04/28 00:23:05;;;;;;;5.82;3.60;;;18.30;58.30;;;;;;5010267;28;20228;-59
2022/04/28 00:25:36;;;;;;;5.75;3.10;;;18.30;58.30;;;;;;5009544;28;20247;-58
2022/04/28 00:28:06;;;;;;;6.15;3.38;;;18.40;58.40;;;;;;5009342;28;20220;-60
2022/04/28 00:30:37;;;;;;;4.53;3.38;;;18.30;58.30;;;;;;5008712;28;20278;-57
2022/04/28 00:33:09;;;;;;;5.82;3.35;;;18.40;58.40;;;;;;5009941;28;20595;-58
2022/04/28 00:35:40;;;;;;;5.78;3.45;;;18.40;58.30;;;;;;5010087;28;20272;-58
2022/04/28 00:38:11;;;;;;;4.78;2.85;;;18.40;58.40;;;;;;5008357;28;20204;-59
2022/04/28 00:40:42;;;;;;;5.07;3.08;;;18.40;58.30;;;;;;5009553;28;20567;-59
2022/04/28 00:43:23;;;;;;;4.18;3.08;;;18.50;58.40;;;;;;5009049;28;20192;-58
2022/04/28 00:45:54;;;;;;;6.72;3.60;;;18.50;58.40;;;;;;5009263;28;20298;-59
2022/04/28 00:51:15;;;;;;;7.10;3.78;;;18.50;58.50;;;;;;5006897;28;20564;-59
2022/04/28 00:53:48;;;;;;;4.82;2.97;;;18.50;58.50;;;;;;5009789;28;20193;-59
2022/04/28 00:56:20;;;;;;;5.82;3.47;;;18.50;58.50;;;;;;5009907;28;20972;-58
2022/04/28 00:58:52;;;;;;;5.50;3.10;;;18.60;58.50;;;;;;5008386;28;21797;-58
2022/04/28 01:01:23;;;;;;;5.57;3.40;;;18.60;58.50;;;;;;5007636;28;20653;-57
2022/04/28 01:03:55;;;;;;;4.50;3.10;;;18.60;59.00;;;;;;5008182;28;20739;-59
2022/04/28 01:06:26;;;;;;;4.63;3.20;;;18.60;58.40;;;;;;5009651;28;20779;-59
2022/04/28 01:08:58;;;;;;;4.65;3.10;;;18.70;58.40;;;;;;5009284;28;20669;-60
2022/04/28 01:11:31;;;;;;;4.28;3.30;;;18.60;58.30;;;;;;5008629;28;20254;-58
2022/04/28 01:14:02;;;;;;;5.55;2.95;;;18.70;58.70;;;;;;5009280;28;20232;-59
2022/04/28 01:16:32;;;;;;;5.55;2.97;;;18.70;58.80;;;;;;5008311;28;20216;-59
2022/04/28 01:19:05;;;;;;;3.75;2.88;;;18.70;58.70;;;;;;5007120;28;20727;-58
2022/04/28 01:21:37;;;;;;;5.18;3.10;;;18.80;58.70;;;;;;5008849;28;20204;-58
2022/04/28 01:24:08;;;;;;;4.28;3.08;;;18.80;58.70;;;;;;5008449;28;20220;-60
2022/04/28 01:26:39;;;;;;;4.05;3.00;;;18.80;58.60;;;;;;5008557;28;20587;-58
2022/04/28 01:29:09;;;;;;;5.55;3.03;;;18.80;58.50;;;;;;5008830;28;20197;-60
2022/04/28 01:31:40;;;;;;;4.63;2.80;;;18.80;58.50;;;;;;5009152;28;20192;-59
2022/04/28 01:34:10;;;;;;;5.43;3.47;;;18.80;58.50;;;;;;5008816;28;20224;-59
2022/04/28 01:36:43;;;;;;;5.88;3.15;;;18.90;58.50;;;;;;5008877;28;20221;-60
2022/04/28 01:39:13;;;;;;;3.38;2.45;;;18.90;58.50;;;;;;5008078;28;20611;-59
2022/04/28 01:41:44;;;;;;;3.97;2.30;;;18.90;58.40;;;;;;5009083;28;20251;-59
2022/04/28 01:44:15;;;;;;;6.40;2.90;;;18.90;58.40;;;;;;5008581;28;20192;-59
2022/04/28 01:46:45;;;;;;;5.97;3.00;;;18.90;58.40;;;;;;5008592;28;20294;-59
2022/04/28 01:49:16;;;;;;;4.60;3.00;;;19.00;58.40;;;;;;5007859;28;20755;-60
2022/04/28 01:57:21;;;;;;;4.68;3.15;;;19.00;58.30;;;;;;5009416;28;20759;-58
2022/04/28 01:59:53;;;;;;;5.40;3.00;;;19.00;58.80;;;;;;5008461;28;20197;-58
2022/04/28 02:02:24;;;;;;;6.10;2.90;;;19.00;58.20;;;;;;5008392;28;20200;-59
2022/04/28 02:04:58;;;;;;;6.15;2.97;;;19.10;58.20;;;;;;5008373;28;20193;-60
2022/04/28 02:07:31;;;;;;;3.80;2.88;;;19.10;58.20;;;;;;5008484;28;20684;-59
2022/04/28 02:10:02;;;;;;;3.50;2.42;;;19.10;58.20;;;;;;5008348;28;20196;-59
2022/04/28 02:12:33;;;;;;;4.60;2.65;;;19.10;58.20;;;;;;5008153;28;20197;-58
2022/04/28 02:15:03;;;;;;;3.60;2.63;;;19.10;58.20;;;;;;5008479;28;20250;-59
2022/04/28 02:17:37;;;;;;;4.45;2.58;;;19.10;58.10;;;;;;5005299;28;20244;-58
2022/04/28 02:20:09;;;;;;;4.57;2.67;;;19.10;58.20;;;;;;5008310;28;20196;-59
2022/04/28 02:22:41;;;;;;;3.65;2.50;;;19.10;58.10;;;;;;5008594;28;20204;-58
2022/04/28 02:25:12;;;;;;;3.50;2.40;;;19.20;58.20;;;;;;5008581;28;20664;-60
2022/04/28 02:27:43;;;;;;;5.45;2.80;;;19.20;58.20;;;;;;5007433;28;20299;-59
2022/04/28 02:30:14;;;;;;;4.07;2.60;;;19.20;58.20;;;;;;5008319;28;20201;-59
2022/04/28 02:35:31;;;;;;;3.63;2.40;;;19.20;58.10;;;;;;5008645;28;20208;-59
2022/04/28 02:38:03;;;;;;;4.03;2.45;;;19.20;58.00;;;;;;5010170;28;20249;-59
2022/04/28 02:40:34;;;;;;;3.25;2.33;;;19.20;58.00;;;;;;5010410;28;20216;-59
2022/04/28 02:43:05;;;;;;;4.85;2.45;;;19.30;58.10;;;;;;5011734;28;20212;-59
2022/04/28 02:45:35;;;;;;;4.40;2.33;;;19.30;58.00;;;;;;5011581;28;20229;-59
2022/04/28 02:48:06;;;;;;;4.82;2.63;;;19.30;58.00;;;;;;5011838;28;20244;-58
2022/04/28 02:50:37;;;;;;;3.85;2.40;;;19.30;58.00;;;;;;5011224;28;20645;-59
2022/04/28 02:53:09;;;;;;;4.50;2.22;;;19.30;58.00;;;;;;5012560;28;20201;-58
2022/04/28 02:55:40;;;;;;;4.40;2.33;;;19.30;58.00;;;;;;5011444;28;20185;-58
2022/04/28 02:58:11;;;;;;;4.45;2.20;;;19.30;57.90;;;;;;5011371;28;20209;-59
2022/04/28 03:00:42;;;;;;;3.78;2.20;;;19.40;57.90;;;;;;5009867;28;20206;-59
2022/04/28 03:03:12;;;;;;;3.85;2.50;;;19.40;57.90;;;;;;5010723;28;20193;-58
2022/04/28 03:11:18;;;;;;;3.97;2.20;;;19.40;57.90;;;;;;5010817;28;20290;-58
2022/04/28 03:13:49;;;;;;;3.83;2.20;;;19.40;57.90;;;;;;5011166;28;20216;-58
2022/04/28 03:16:19;;;;;;;4.50;1.92;;;19.40;57.90;;;;;;5010807;28;20216;-58
2022/04/28 03:18:50;;;;;;;2.70;1.48;;;19.40;57.90;;;;;;5011047;28;20199;-59
2022/04/28 03:21:21;;;;;;;3.85;2.05;;;19.50;57.90;;;;;;5011620;28;20208;-59
2022/04/28 03:23:53;;;;;;;5.10;2.30;;;19.50;58.20;;;;;;5011127;28;20195;-57
2022/04/28 03:26:24;;;;;;;4.22;2.10;;;19.50;57.80;;;;;;5011655;28;20271;-59
2022/04/28 03:28:55;;;;;;;4.55;2.05;;;19.50;57.80;;;;;;5009841;28;20644;-59
2022/04/28 03:31:26;;;;;;;2.92;1.80;;;19.50;57.70;;;;;;5010812;28;20746;-59
2022/04/28 03:33:56;;;;;;;2.40;2.03;;;19.60;57.70;;;;;;5010649;28;20200;-58
2022/04/28 03:39:15;;;;;;;2.90;1.75;;;19.60;57.60;;;;;;5011254;28;20212;-59
2022/04/28 03:41:46;;;;;;;3.72;2.30;;;19.60;57.60;;;;;;5010888;28;20325;-59
2022/04/28 03:44:17;;;;;;;3.22;2.05;;;19.60;57.60;;;;;;5011603;28;20205;-59
2022/04/28 03:46:47;;;;;;;3.20;2.38;;;19.60;57.50;;;;;;5010624;28;20212;-59
2022/04/28 03:49:18;;;;;;;3.05;2.28;;;19.60;57.50;;;;;;5008466;28;20260;-59
2022/04/28 03:51:55;;;;;;;2.33;1.80;;;19.70;57.50;;;;;;5011309;28;20224;-58
2022/04/28 03:54:27;;;;;;;3.60;1.85;;;19.70;57.50;;;;;;5011257;28;20605;-60
2022/04/28 03:56:58;;;;;;;4.43;2.00;;;19.70;57.50;;;;;;5009954;28;20216;-60
2022/04/28 03:59:28;;;;;;;3.63;1.88;;;19.70;57.40;;;;;;5010029;28;20290;-58
2022/04/28 04:01:59;;;;;;;3.63;2.20;;;19.70;57.40;;;;;;5009599;28;20270;-58
2022/04/28 04:04:29;;;;;;;2.40;1.92;;;19.80;57.40;;;;;;5009583;28;20200;-58
2022/04/28 04:07:00;;;;;;;3.17;2.00;;;19.80;57.30;;;;;;5010815;28;20689;-58
2022/04/28 04:09:33;;;;;;;2.83;1.73;;;19.80;57.20;;;;;;5007439;28;20225;-59
2022/04/28 04:12:03;;;;;;;2.80;2.10;;;19.80;57.20;;;;;;5010862;28;20201;-58
2022/04/28 04:14:34;;;;;;;3.35;2.10;;;19.80;57.10;;;;;;5010229;28;20193;-58
2022/04/28 04:17:05;;;;;;;4.03;1.80;;;19.90;57.20;;;;;;5010798;28;20213;-58
2022/04/28 04:19:35;;;;;;;3.80;1.90;;;19.90;57.10;;;;;;5009379;28;20219;-58
2022/04/28 04:22:06;;;;;;;3.40;1.90;;;19.90;57.10;;;;;;5010435;28;20201;-58
2022/04/28 04:24:40;;;;;;;3.28;1.80;;;19.90;57.10;;;;;;5009832;28;20591;-59
2022/04/28 04:27:11;;;;;;;4.47;2.13;;;19.90;57.00;;;;;;5009767;28;20715;-58
2022/04/28 04:29:42;;;;;;;3.30;2.10;;;19.90;57.00;;;;;;5008710;28;20212;-59
2022/04/28 04:32:25;;;;;;;3.70;1.85;;;19.90;56.90;;;;;;5007586;28;20727;-59
2022/04/28 04:34:56;;;;;;;3.55;2.00;;;19.90;56.90;;;;;;5008402;28;20200;-59
2022/04/28 04:37:28;;;;;;;4.97;2.20;;;19.90;56.90;;;;;;5009596;28;20220;-58
2022/04/28 04:40:01;;;;;;;1.73;1.52;;;19.90;56.90;;;;;;5010345;28;20197;-58
2022/04/28 04:42:31;;;;;;;5.47;2.00;;;19.90;56.80;;;;;;5009474;28;20668;-58
2022/04/28 04:45:02;;;;;;;4.88;2.10;;;19.90;56.80;;;;;;5010292;28;20204;-58
2022/04/28 04:47:32;;;;;;;4.10;2.13;;;20.00;56.80;;;;;;5008900;28;20232;-58
2022/04/28 04:50:03;;;;;;;4.57;2.08;;;19.90;56.80;;;;;;5009310;28;20665;-58
2022/04/28 04:52:36;;;;;;;2.65;2.25;;;20.00;56.80;;;;;;5010481;28;20621;-58
2022/04/28 04:55:09;;;;;;;4.25;2.30;;;20.00;56.80;;;;;;5008627;28;20197;-59
2022/04/28 04:57:40;;;;;;;4.97;3.00;;;19.90;56.70;;;;;;5009341;28;20248;-57
2022/04/28 05:00:11;;;;;;;5.32;2.90;;;20.00;56.70;;;;;;5008664;28;20193;-58
2022/04/28 05:02:42;;;;;;;5.80;3.53;;;20.00;57.30;;;;;;5006833;28;20331;-58
2022/04/28 05:05:13;;;;;;;4.68;3.05;;;19.90;56.60;;;;;;5008911;28;20751;-58
2022/04/28 05:07:43;;;;;;;5.35;2.90;;;19.90;56.60;;;;;;5008234;28;20290;-57
2022/04/28 05:10:16;;;;;;;6.22;2.95;;;19.90;56.60;;;;;;5008211;28;20201;-57
2022/04/28 05:12:47;;;;;;;6.38;3.58;;;19.90;56.60;;;;;;5009191;28;20220;-58
2022/04/28 05:15:17;;;;;;;4.32;3.10;;;19.90;56.60;;;;;;5009305;28;20199;-59
2022/04/28 05:17:48;;;;;;;4.57;2.63;;;19.90;56.60;;;;;;5009584;28;20274;-57
2022/04/28 05:20:18;;;;;;;4.43;3.00;;;19.90;57.20;;;;;;5008705;28;20193;-58
2022/04/28 05:22:49;;;;;;;4.68;3.00;;;19.90;56.60;;;;;;5009383;28;20239;-58
2022/04/28 05:25:22;;;;;;;4.43;3.13;;;19.90;57.20;;;;;;5009156;28;20583;-59
2022/04/28 05:27:52;;;;;;;6.30;3.30;;;19.90;57.30;;;;;;5008372;28;20657;-58
2022/04/28 05:30:23;;;;;;;4.40;3.45;;;19.90;56.80;;;;;;5008416;28;20197;-58
2022/04/28 05:32:53;;;;;;;6.25;3.28;;;19.90;56.60;;;;;;5008756;28;20196;-58
2022/04/28 05:35:24;;;;;;;5.60;3.20;;;19.90;56.70;;;;;;5008957;28;20193;-59
2022/04/28 05:37:54;;;;;;;4.93;3.00;;;19.90;56.70;;;;;;5007359;28;20272;-58
2022/04/28 05:40:27;;;;;;;5.28;3.17;;;19.80;56.60;;;;;;5008457;28;20201;-59
2022/04/28 05:45:46;;;;;;;5.28;3.40;;;19.80;56.60;;;;;;5008571;28;20235;-58
2022/04/28 05:48:18;;;;;;;7.50;3.15;;;19.80;56.60;;;;;;5007355;28;20252;-58
2022/04/28 05:50:49;;;;;;;6.45;3.47;;;19.80;56.60;;;;;;5008063;28;20298;-57
2022/04/28 05:53:19;;;;;;;5.30;2.72;;;19.80;56.60;;;;;;5009424;28;20197;-58
2022/04/28 05:55:52;;;;;;;4.47;2.80;;;19.80;56.60;;;;;;5007921;28;20248;-60
2022/04/28 05:58:22;;;;;;;6.80;3.70;;;19.80;56.60;;;;;;5008921;28;20216;-58
2022/04/28 06:00:53;;;;;;;6.18;3.08;;;19.80;56.60;;;;;;5008593;28;20636;-58
2022/04/28 06:03:23;;;;;;;4.93;2.97;;;19.80;56.70;;;;;;5007777;28;20189;-58
2022/04/28 06:05:54;;;;;;;5.75;3.13;;;19.70;56.60;;;;;;5008838;28;20244;-58
2022/04/28 06:08:25;;;;;;;4.57;2.97;;;19.70;56.70;;;;;;5003437;28;20247;-59
2022/04/28 06:10:57;;;;;;;4.78;2.72;;;19.70;56.70;;;;;;5008614;28;20185;-57
2022/04/28 06:13:29;;;;;;;5.10;3.05;;;19.70;56.70;;;;;;5009176;28;20201;-60
2022/04/28 06:15:59;;;;;;;4.97;3.10;;;19.70;56.70;;;;;;5012048;28;20259;-60
2022/04/28 06:18:30;;;;;;;6.15;2.90;;;19.70;56.70;;;;;;5010534;28;20220;-59
2022/04/28 06:21:00;;;;;;;5.22;3.08;;;19.70;56.70;;;;;;5012133;28;20260;-58
2022/04/28 06:23:31;;;;;;;5.00;3.08;;;19.70;56.70;;;;;;5012408;28;20201;-60
2022/04/28 06:26:03;;;;;;;3.60;3.20;;;19.70;56.70;;;;;;5011332;28;20355;-59
2022/04/28 06:28:34;;;;;;;3.33;2.67;;;19.70;56.70;;;;;;5012361;28;20684;-60
2022/04/28 06:31:05;;;;;;;6.55;3.30;;;19.70;56.70;;;;;;5012488;28;20254;-59
2022/04/28 06:33:36;;;;;;;5.28;3.08;;;19.60;56.70;;;;;;5011524;28;20680;-57
2022/04/28 06:36:07;;;;;;;4.65;2.90;;;19.60;56.70;;;;;;5011252;28;20209;-60
2022/04/28 06:38:37;;;;;;;5.45;2.85;;;19.60;56.70;;;;;;5012584;28;20196;-57
2022/04/28 06:41:10;;;;;;;5.60;3.15;;;19.60;56.70;;;;;;5008430;28;20197;-59
2022/04/28 06:43:40;;;;;;;4.10;2.65;;;19.60;56.80;;;;;;5010192;28;20232;-59
2022/04/28 06:46:17;;;;;;;4.22;2.95;;;19.60;56.80;;;;;;5009244;28;20240;-58
2022/04/28 06:48:47;;;;;;;6.25;3.00;;;19.60;56.80;;;;;;5009810;28;20350;-58
2022/04/28 06:51:18;;;;;;;5.28;3.00;;;19.60;56.80;;;;;;5011729;28;20251;-58
2022/04/28 06:53:48;;;;;;;3.75;2.80;;;19.60;56.90;;;;;;5012606;28;20279;-59
2022/04/28 06:56:21;;;;;;;5.68;2.83;;;19.60;56.90;;;;;;5011177;28;20267;-58
2022/04/28 06:58:51;;;;;;;4.38;2.75;;;19.60;56.90;;;;;;5012192;28;20637;-58
2022/04/28 07:01:22;;;;;;;4.78;3.28;;;19.60;56.90;;;;;;5010584;28;20192;-59
2022/04/28 07:03:52;;;;;;;4.63;3.05;;;19.60;56.90;;;;;;5010821;28;20189;-58
2022/04/28 07:06:23;;;;;;;5.40;3.15;;;19.60;56.90;;;;;;5011524;28;20680;-58
2022/04/28 07:08:53;;;;;;;4.90;2.88;;;19.50;56.90;;;;;;5009706;28;20310;-59
2022/04/28 07:11:26;;;;;;;4.18;2.97;;;19.60;56.90;;;;;;5011673;28;20233;-57
2022/04/28 07:13:56;;;;;;;3.50;2.50;;;19.50;56.90;;;;;;5011425;28;20193;-59
2022/04/28 07:16:27;;;;;;;5.80;2.90;;;19.50;56.90;;;;;;5011322;28;20213;-58
2022/04/28 07:18:57;;;;;;;7.28;3.53;;;19.50;56.90;;;;;;5010572;28;20684;-58
2022/04/28 07:21:28;;;;;;;6.53;3.42;;;19.50;56.90;;;;;;5011458;28;20665;-58
2022/04/28 07:23:58;;;;;;;8.85;4.20;;;19.50;56.90;;;;;;5011424;28;20197;-58
2022/04/28 07:26:32;;;;;;;7.35;3.95;;;19.50;56.90;;;;;;5011180;28;20240;-58
2022/04/28 07:29:05;;;;;;;10.05;4.72;;;19.50;57.00;;;;;;5009537;28;20260;-58
2022/04/28 07:31:36;;;;;;;9.95;5.40;;;19.50;57.00;;;;;;5010793;28;20657;-58
2022/04/28 07:34:06;;;;;;;10.85;5.13;;;19.40;57.00;;;;;;5011393;28;20212;-58
2022/04/28 07:36:37;;;;;;;11.73;6.10;;;19.40;57.10;;;;;;5010227;28;20240;-58
2022/04/28 07:39:08;;;;;;;12.45;5.57;;;19.40;57.10;;;;;;5011259;28;20243;-57
2022/04/28 07:41:40;;;;;;;19.90;9.23;;;19.40;57.10;;;;;;5012986;28;20724;-57
2022/04/28 07:44:11;;;;;;;17.00;7.50;;;19.40;57.40;;;;;;5013860;28;20735;-56
2022/04/28 07:46:42;;;;;;;21.08;8.98;;;19.40;57.40;;;;;;5014350;28;20304;-57
2022/04/28 07:49:12;;;;;;;15.43;8.32;;;19.40;57.40;;;;;;5004184;28;20634;-57
2022/04/28 07:51:43;;;;;;;17.33;9.13;;;19.40;57.50;;;;;;5009558;28;20193;-54
2022/04/28 07:54:13;;;;;;;22.83;10.25;;;19.40;57.50;;;;;;5010716;28;20196;-54
2022/04/28 07:56:47;;;;;;;20.73;9.93;;;19.40;57.50;;;;;;5010458;28;20755;-56
2022/04/28 07:59:17;;;;;;;22.33;8.23;;;19.40;57.60;;;;;;5010590;28;20197;-57
2022/04/28 08:01:48;;;;;;;19.90;8.50;;;19.40;57.50;;;;;;5010249;28;20224;-55
2022/04/28 08:04:19;;;;;;;18.90;8.68;;;19.40;57.50;;;;;;5010871;28;20200;-58
2022/04/28 08:06:49;;;;;;;22.60;9.20;;;19.40;57.50;;;;;;5009534;28;20696;-58
2022/04/28 08:09:20;;;;;;;22.58;9.80;;;19.40;57.50;;;;;;5009888;28;20220;-56
2022/04/28 08:11:52;;;;;;;19.88;8.88;;;19.30;57.40;;;;;;5009920;28;20197;-55
2022/04/28 08:14:24;;;;;;;18.55;9.30;;;19.30;57.40;;;;;;5010186;28;20197;-53
2022/04/28 08:16:55;;;;;;;20.50;9.82;;;19.30;57.40;;;;;;5009727;28;20776;-55
2022/04/28 08:19:26;;;;;;;24.27;10.10;;;19.30;57.40;;;;;;5010383;28;20315;-54
2022/04/28 08:21:56;;;;;;;19.27;8.82;;;19.30;57.40;;;;;;5005343;28;20296;-57
2022/04/28 08:24:27;;;;;;;18.85;9.63;;;19.30;57.40;;;;;;5009903;28;20201;-56
2022/04/28 08:26:59;;;;;;;22.23;9.77;;;19.20;57.40;;;;;;5009821;28;20684;-57
2022/04/28 08:29:30;;;;;;;25.00;10.00;;;19.20;57.40;;;;;;5009827;28;20220;-54
2022/04/28 08:32:00;;;;;;;24.10;10.13;;;19.20;57.50;;;;;;5009797;28;20205;-58
2022/04/28 08:34:31;;;;;;;21.17;9.27;;;19.20;57.50;;;;;;5009189;28;20193;-55
2022/04/28 08:37:01;;;;;;;19.05;9.75;;;19.20;57.50;;;;;;5008071;28;20271;-56
2022/04/28 08:39:32;;;;;;;20.23;10.05;;;19.20;57.40;;;;;;5009277;28;20216;-55
2022/04/28 08:42:04;;;;;;;16.92;9.60;;;19.20;57.50;;;;;;5010043;28;20201;-56
2022/04/28 08:44:35;;;;;;;21.00;9.35;;;19.20;57.50;;;;;;5009222;28;20246;-56
2022/04/28 08:47:06;;;;;;;21.88;8.88;;;19.10;57.40;;;;;;5009598;28;20244;-58
2022/04/28 08:49:36;;;;;;;19.63;9.45;;;19.10;58.10;;;;;;5008604;28;20274;-57
2022/04/28 08:52:14;;;;;;;16.55;9.18;;;19.10;58.10;;;;;;5007712;28;20562;-55
2022/04/28 08:54:47;;;;;;;20.10;9.63;;;19.10;57.50;;;;;;5009056;28;20204;-58
2022/04/28 08:57:20;;;;;;;19.13;9.90;;;19.10;57.50;;;;;;5009062;28;20680;-56
2022/04/28 08:59:51;;;;;;;23.17;10.38;;;19.00;57.40;;;;;;5002877;28;20225;-58
2022/04/28 09:02:29;;;;;;;22.80;10.10;;;19.00;57.40;;;;;;4992475;28;20273;-54
2022/04/28 09:05:03;;;;;;;19.33;9.20;;;19.00;57.40;;;;;;4992339;28;20201;-55
2022/04/28 09:07:38;;;;;;;20.30;10.10;;;19.00;57.50;;;;;;4992680;28;20220;-59
2022/04/28 09:10:29;;;;;;;18.20;8.95;;;19.00;57.50;;;;;;4992528;28;20704;-58
2022/04/28 09:15:50;;;;;;;15.85;8.57;;;19.00;57.50;;;;;;4958362;28;20222;-56
2022/04/28 09:18:21;;;;;;;16.15;8.80;;;19.00;57.50;;;;;;4992199;28;20197;-57
2022/04/28 09:20:53;;;;;;;26.98;12.52;;;19.00;57.50;;;;;;4991906;28;20201;-59
2022/04/28 09:23:23;;;;;;;20.95;10.25;;;19.00;57.90;;;;;;4992100;28;20332;-59
2022/04/28 09:25:56;;;;;;;18.77;10.35;;;19.00;58.00;;;;;;4991747;28;20268;-58
2022/04/28 09:28:29;;;;;;;19.73;9.73;;;19.00;57.90;;;;;;4992268;28;20201;-59
2022/04/28 09:31:01;;;;;;;18.63;10.10;;;18.90;57.80;;;;;;4991509;28;20217;-54
2022/04/28 09:33:32;;;;;;;20.65;9.73;;;18.90;57.80;;;;;;4991653;28;20201;-57
2022/04/28 09:36:03;;;;;;;16.83;9.52;;;18.90;57.80;;;;;;4991520;28;20268;-58
2022/04/28 09:38:35;;;;;;;19.17;10.00;;;18.90;57.80;;;;;;4992252;28;20206;-57
2022/04/28 09:43:59;;;;;;;18.65;10.18;;;18.90;57.80;;;;;;4992194;28;20204;-58
2022/04/28 09:46:29;;;;;;;19.60;9.73;;;18.90;57.70;;;;;;4991453;28;20249;-57
2022/04/28 09:49:01;;;;;;;18.08;9.90;;;18.90;57.80;;;;;;4991967;28;20197;-56
2022/04/28 09:51:33;;;;;;;15.18;9.55;;;18.80;57.70;;;;;;4992120;28;20197;-56
2022/04/28 09:54:08;;;;;;;16.63;8.80;;;18.80;57.80;;;;;;4992629;28;20197;-58
2022/04/28 09:56:40;;;;;;;17.50;9.73;;;18.80;57.80;;;;;;4992064;28;20244;-57
2022/04/28 09:59:13;;;;;;;19.88;9.52;;;18.80;57.80;;;;;;4992071;28;20201;-58
2022/04/28 10:01:44;;;;;;;18.27;9.45;;;18.80;57.80;;;;;;4991759;28;20636;-56
2022/04/28 10:04:14;;;;;;;17.13;8.70;;;18.80;57.70;;;;;;4992235;28;20567;-56
2022/04/28 10:06:45;;;;;;;16.02;9.15;;;18.80;57.80;;;;;;4992117;28;20221;-56
2022/04/28 10:09:17;;;;;;;15.85;8.93;;;18.80;57.80;;;;;;4991868;28;20716;-57
2022/04/28 10:11:50;;;;;;;16.08;8.98;;;18.70;57.70;;;;;;4991816;28;20244;-57
2022/04/28 10:14:26;;;;;;;15.48;9.27;;;18.70;57.70;;;;;;4992039;28;20193;-54
2022/04/28 10:16:57;;;;;;;18.40;9.77;;;18.70;57.70;;;;;;4991766;28;20233;-57
2022/04/28 10:19:34;;;;;;;16.50;9.27;;;18.70;57.70;;;;;;4991868;28;20197;-58
2022/04/28 10:22:07;;;;;;;17.08;9.68;;;18.70;57.70;;;;;;4991220;28;20193;-56
2022/04/28 10:33:08;;;;;;;14.48;8.00;;;18.60;57.70;;;;;;4980977;28;20216;-56
2022/04/28 10:35:41;;;;;;;14.02;8.80;;;18.60;57.60;;;;;;5007097;28;20201;-58
2022/04/28 10:38:15;;;;;;;15.55;9.48;;;18.60;57.60;;;;;;5008566;28;20259;-57
2022/04/28 10:40:47;;;;;;;16.55;8.13;;;18.60;57.70;;;;;;5007419;28;20192;-56
2022/04/28 10:43:26;;;;;;;16.92;8.13;;;18.50;57.60;;;;;;5008536;28;20208;-54
2022/04/28 10:45:59;;;;;;;13.35;7.95;;;18.50;57.60;;;;;;5006420;28;20931;-56
2022/04/28 10:48:35;;;;;;;17.95;8.63;;;18.50;57.70;;;;;;5005869;28;20201;-56
2022/04/28 10:51:14;;;;;;;15.55;8.40;;;18.50;57.60;;;;;;5005236;28;20217;-58
2022/04/28 10:54:07;;;;;;;16.30;8.45;;;18.50;57.60;;;;;;5009397;28;20197;-58
2022/04/28 10:57:07;;;;;;;16.40;8.27;;;18.50;57.60;;;;;;5007579;28;20213;-56
2022/04/28 10:59:42;;;;;;;12.88;7.85;;;18.40;57.60;;;;;;5011095;28;20318;-56
2022/04/28 11:02:51;;;;;;;14.95;8.20;;;18.40;57.60;;;;;;5010395;28;20295;-58
2022/04/28 11:05:40;;;;;;;12.45;7.90;;;18.40;57.60;;;;;;5012162;28;20251;-56
2022/04/28 11:08:30;;;;;;;12.40;7.35;;;18.40;57.60;;;;;;5010785;28;20193;-55
2022/04/28 11:11:12;;;;;;;13.95;7.82;;;18.40;57.60;;;;;;5010897;28;20774;-53
2022/04/28 11:13:46;;;;;;;14.75;7.47;;;18.40;57.60;;;;;;5010824;28;20205;-56
2022/04/28 11:16:17;;;;;;;13.77;8.05;;;18.30;57.60;;;;;;5011802;28;20236;-55
2022/04/28 11:18:47;;;;;;;14.13;8.18;;;18.30;57.60;;;;;;5010266;28;20271;-56
2022/04/28 11:21:20;;;;;;;13.45;7.15;;;18.30;58.30;;;;;;5009822;28;20267;-56
2022/04/28 11:23:52;;;;;;;10.45;7.18;;;18.30;57.60;;;;;;5011657;28;20193;-55
2022/04/28 11:26:26;;;;;;;11.75;7.10;;;18.30;57.70;;;;;;5010639;28;20209;-55
2022/04/28 11:28:57;;;;;;;14.13;7.38;;;18.20;57.60;;;;;;5010314;28;20204;-56
2022/04/28 11:31:27;;;;;;;12.25;7.45;;;18.20;57.60;;;;;;5010376;28;20224;-56
2022/04/28 11:33:58;;;;;;;9.98;7.45;;;18.20;57.60;;;;;;5010174;28;20731;-56
2022/04/28 11:36:32;;;;;;;11.15;7.32;;;18.20;57.60;;;;;;5010346;28;20700;-55
2022/04/28 11:39:03;;;;;;;14.25;7.63;;;18.20;57.60;;;;;;5009838;28;20193;-55
2022/04/28 11:41:38;;;;;;;14.18;7.90;;;18.20;57.60;;;;;;5010893;28;20648;-56
2022/04/28 11:44:10;;;;;;;11.65;7.20;;;18.20;57.60;;;;;;5010777;28;20208;-56
2022/04/28 11:46:50;;;;;;;13.20;7.30;;;18.20;57.60;;;;;;5010575;28;20217;-54
2022/04/28 11:49:23;;;;;;;13.07;7.15;;;18.20;57.60;;;;;;5009835;28;20602;-54
2022/04/28 11:51:56;;;;;;;11.60;7.47;;;18.10;57.50;;;;;;5010469;28;20451;-56
2022/04/28 11:54:27;;;;;;;14.75;7.60;;;18.10;57.60;;;;;;5011472;28;20239;-56
2022/04/28 11:57:11;;;;;;;11.50;6.60;;;18.10;57.60;;;;;;5010337;28;20209;-55
2022/04/28 11:59:43;;;;;;;9.98;6.43;;;18.10;57.60;;;;;;5010798;28;20224;-57
2022/04/28 12:02:28;;;;;;;11.15;6.68;;;18.10;57.60;;;;;;5010220;28;20276;-56
2022/04/28 12:04:59;;;;;;;13.98;8.23;;;18.10;57.60;;;;;;4996555;28;20239;-57
2022/04/28 12:07:34;;;;;;;11.18;6.88;;;18.00;57.60;;;;;;4993922;28;20252;-57
2022/04/28 12:15:40;;;;;;;11.23;6.55;;;18.00;57.60;;;;;;4972881;28;20252;-57
2022/04/28 12:21:02;;;;;;;11.15;7.00;;;18.00;57.60;;;;;;4990677;28;20205;-58
2022/04/28 12:23:36;;;;;;;13.07;7.13;;;18.00;57.60;;;;;;4990843;28;20217;-58
2022/04/28 12:26:08;;;;;;;11.80;6.43;;;18.00;57.60;;;;;;4989405;28;20267;-58
2022/04/28 12:28:40;;;;;;;10.77;6.60;;;17.90;57.60;;;;;;4990798;28;20272;-58
2022/04/28 12:31:11;;;;;;;9.77;6.10;;;17.90;57.60;;;;;;4990738;28;20248;-58
2022/04/28 12:33:43;;;;;;;9.13;6.13;;;17.90;57.60;;;;;;4988117;28;20197;-57
2022/04/28 12:36:14;;;;;;;11.52;6.90;;;17.90;57.60;;;;;;4989422;28;20300;-59
2022/04/28 12:38:52;;;;;;;10.07;6.00;;;17.90;57.60;;;;;;4989908;28;20590;-58
2022/04/28 12:41:24;;;;;;;12.27;6.57;;;17.90;57.60;;;;;;4988611;28;20711;-59
2022/04/28 12:43:56;;;;;;;9.00;6.50;;;17.80;57.50;;;;;;4991316;28;20205;-59
2022/04/28 12:46:38;;;;;;;11.07;6.55;;;17.80;57.60;;;;;;4991364;28;20225;-58
2022/04/28 12:49:10;;;;;;;10.70;6.80;;;17.80;57.60;;;;;;4990562;28;20649;-60
2022/04/28 12:51:45;;;;;;;9.80;6.28;;;17.80;57.60;;;;;;4991403;28;20225;-59
2022/04/28 12:54:20;;;;;;;11.68;6.47;;;17.80;57.60;;;;;;4991460;28;20197;-60
2022/04/28 12:56:55;;;;;;;10.48;5.90;;;17.80;57.60;;;;;;4991074;28;20604;-60
2022/04/28 12:59:28;;;;;;;9.07;6.63;;;17.80;57.60;;;;;;4991449;28;20211;-58
2022/04/28 13:01:58;;;;;;;8.93;5.80;;;17.70;57.50;;;;;;4991534;28;20613;-56
2022/04/28 13:04:29;;;;;;;9.95;6.40;;;17.70;57.50;;;;;;4990762;28;20193;-59
2022/04/28 13:07:01;;;;;;;9.68;5.90;;;17.70;57.50;;;;;;4991278;28;20213;-57
2022/04/28 13:09:34;;;;;;;10.30;5.90;;;17.70;57.50;;;;;;4991041;28;20251;-58
2022/04/28 13:12:04;;;;;;;8.18;5.43;;;17.70;57.50;;;;;;4990892;28;20320;-59
2022/04/28 13:14:35;;;;;;;11.77;5.95;;;17.70;57.50;;;;;;4990777;28;20197;-58
2022/04/28 13:17:06;;;;;;;9.52;5.93;;;17.70;57.50;;;;;;4990973;28;20222;-56
2022/04/28 13:19:36;;;;;;;8.23;5.53;;;17.70;57.60;;;;;;4990655;28;20190;-57
2022/04/28 13:22:07;;;;;;;7.53;5.40;;;17.70;57.60;;;;;;4990706;28;20715;-58
2022/04/28 13:24:39;;;;;;;9.43;5.47;;;17.70;57.60;;;;;;4990361;28;20193;-57
2022/04/28 13:27:10;;;;;;;9.20;5.82;;;17.60;57.60;;;;;;4990236;28;20221;-56
2022/04/28 13:29:40;;;;;;;7.68;5.07;;;17.60;57.60;;;;;;4990473;28;20233;-57
2022/04/28 13:32:11;;;;;;;7.35;5.10;;;17.60;57.60;;;;;;4990648;28;20227;-55
2022/04/28 13:34:42;;;;;;;8.27;5.78;;;17.60;57.60;;;;;;4990211;28;20661;-58
2022/04/28 13:37:12;;;;;;;9.38;5.63;;;17.60;57.60;;;;;;4990908;28;20271;-58
2022/04/28 13:39:45;;;;;;;9.63;5.60;;;17.60;57.60;;;;;;4991101;28;20264;-58
2022/04/28 13:42:15;;;;;;;6.93;5.30;;;17.50;57.50;;;;;;4991033;28;20205;-54
2022/04/28 13:44:46;;;;;;;7.25;5.38;;;17.50;57.50;;;;;;4990837;28;20201;-56
2022/04/28 13:47:17;;;;;;;7.05;4.82;;;17.50;57.50;;;;;;4990850;28;20217;-56
2022/04/28 13:49:47;;;;;;;6.53;5.13;;;17.50;57.50;;;;;;4990457;28;20642;-53
2022/04/28 13:52:18;;;;;;;10.57;5.47;;;17.50;57.50;;;;;;4990900;28;20292;-55